Time;durP1;ratioP1;P1;durP2;ratioP2;P2;SDS_P1;SDS_P2;PMS_P1;PMS_P2;Temp;Humidity;BMP_temperature;BMP_pressure;BME280_temperature;BME280_humidity;BME280_pressure;Samples;Min_cycle;Max_cycle;Signal;HPM_P1;HPM_P2
2022/08/04 00:02:09;;;;;;;29.58;21.23;;;17.70;99.90;;;;;;10321729;28;20054;-80
2022/08/04 00:07:12;;;;;;;34.00;22.63;;;17.60;99.90;;;;;;10320574;28;20046;-80
2022/08/04 00:12:16;;;;;;;30.42;21.92;;;17.60;99.90;;;;;;10318227;28;20043;-80
2022/08/04 00:17:22;;;;;;;31.77;22.80;;;17.60;99.90;;;;;;10317639;28;20125;-80
2022/08/04 00:22:27;;;;;;;32.20;21.13;;;17.60;99.90;;;;;;10321659;28;20050;-80
2022/08/04 00:27:29;;;;;;;34.83;23.37;;;17.60;99.90;;;;;;10313321;28;20176;-81
2022/08/04 00:32:30;;;;;;;35.05;22.88;;;17.60;99.90;;;;;;10321901;28;20030;-80
2022/08/04 00:37:32;;;;;;;35.95;23.95;;;17.50;99.90;;;;;;10318044;28;20037;-81
2022/08/04 00:42:48;;;;;;;33.30;24.48;;;17.40;99.90;;;;;;10322266;28;20060;-81
2022/08/04 00:48:13;;;;;;;32.10;22.90;;;17.40;99.90;;;;;;10319458;28;20041;-80
2022/08/04 00:53:30;;;;;;;33.93;21.50;;;17.40;99.90;;;;;;10321218;28;20041;-80
2022/08/04 00:58:55;;;;;;;37.25;22.38;;;17.40;99.90;;;;;;10320671;28;20117;-80
2022/08/04 01:04:19;;;;;;;32.63;22.17;;;17.40;99.90;;;;;;10317043;28;20062;-80
2022/08/04 01:09:48;;;;;;;32.47;22.45;;;17.30;99.90;;;;;;10320582;28;20038;-81
2022/08/04 01:15:09;;;;;;;36.53;24.75;;;17.30;99.90;;;;;;10308442;28;20022;-80
2022/08/04 01:20:15;;;;;;;34.85;24.92;;;17.40;99.90;;;;;;10319967;28;20491;-80
2022/08/04 01:25:35;;;;;;;38.83;24.67;;;17.30;99.90;;;;;;10385833;23;20521;-79
2022/08/04 01:30:40;;;;;;;36.33;24.80;;;17.20;99.90;;;;;;10391267;28;20037;-79
2022/08/04 01:36:04;;;;;;;34.47;23.98;;;17.20;99.90;;;;;;10392062;28;20029;-79
2022/08/04 01:41:07;;;;;;;38.03;27.73;;;17.20;99.90;;;;;;10387401;28;20040;-80
2022/08/04 01:46:11;;;;;;;39.97;27.90;;;17.10;99.90;;;;;;10402192;28;20030;-80
2022/08/04 01:51:12;;;;;;;41.57;26.83;;;17.00;99.90;;;;;;10389236;28;20140;-80
2022/08/04 01:56:13;;;;;;;39.35;27.30;;;17.10;99.90;;;;;;10391442;28;20104;-80
2022/08/04 02:01:14;;;;;;;40.08;27.30;;;17.00;99.90;;;;;;10388365;28;20107;-78
2022/08/04 02:06:54;;;;;;;39.28;26.55;;;17.00;99.90;;;;;;10392929;28;20037;-78
2022/08/04 02:12:19;;;;;;;39.38;26.77;;;16.90;99.90;;;;;;10362157;28;20022;-79
2022/08/04 02:17:36;;;;;;;45.10;28.77;;;16.90;99.90;;;;;;10349031;28;20034;-78
2022/08/04 02:22:51;;;;;;;40.47;26.42;;;16.90;99.90;;;;;;10368811;28;20046;-79
2022/08/04 02:28:11;;;;;;;45.00;30.70;;;16.80;99.90;;;;;;10356450;28;20026;-79
2022/08/04 02:33:16;;;;;;;55.13;31.38;;;16.60;99.90;;;;;;10360920;28;20037;-78
2022/08/04 02:38:28;;;;;;;1999.90;999.90;;;16.60;99.90;;;;;;10384663;22;20137;-78
2022/08/04 02:43:31;;;;;;;1999.90;999.90;;;16.60;99.90;;;;;;10366349;28;20030;-79
2022/08/04 02:48:35;;;;;;;1.00;1.00;;;16.60;99.90;;;;;;10361614;28;20056;-78
2022/08/04 02:53:36;;;;;;;1077.85;564.38;;;16.60;99.90;;;;;;10366282;28;20424;-79
2022/08/04 02:58:40;;;;;;;0.00;0.00;;;16.50;99.90;;;;;;10367720;28;20071;-81
2022/08/04 03:03:58;;;;;;;0.00;0.00;;;16.60;99.90;;;;;;10364331;28;20120;-81
2022/08/04 03:09:46;;;;;;;0.00;0.00;;;16.50;99.90;;;;;;10330697;28;20034;-80
2022/08/04 03:14:56;;;;;;;0.00;0.00;;;16.50;99.90;;;;;;10313567;28;20033;-80
2022/08/04 03:20:35;;;;;;;0.00;0.00;;;16.50;99.90;;;;;;10324755;28;20757;-81
2022/08/04 03:25:52;;;;;;;678.38;303.75;;;16.50;99.90;;;;;;10280453;28;20050;-81
2022/08/04 03:31:04;;;;;;;1999.90;999.90;;;16.50;99.90;;;;;;10326853;28;20488;-81
2022/08/04 03:36:34;;;;;;;1999.90;999.90;;;16.60;99.90;;;;;;10328405;28;20119;-81
2022/08/04 03:42:10;;;;;;;1054.72;552.67;;;16.60;99.90;;;;;;10330011;28;20034;-81
2022/08/04 03:47:45;;;;;;;1999.90;999.90;;;16.60;99.90;;;;;;10331396;28;20549;-82
2022/08/04 03:53:18;;;;;;;1999.90;999.90;;;16.60;99.90;;;;;;10313652;28;20050;-81
2022/08/04 03:58:42;;;;;;;1999.90;999.90;;;16.70;99.90;;;;;;10319741;28;20117;-83
2022/08/04 04:04:09;;;;;;;1999.90;999.90;;;16.70;99.90;;;;;;10318760;28;20042;-82
2022/08/04 04:09:19;;;;;;;155.90;36.20;;;16.80;99.90;;;;;;10324965;28;20125;-81
2022/08/04 04:14:48;;;;;;;32.05;11.80;;;16.90;99.90;;;;;;10330782;28;20058;-82
2022/08/04 04:20:20;;;;;;;18.08;11.40;;;17.10;99.90;;;;;;10331055;28;20666;-80
2022/08/04 04:25:45;;;;;;;22.73;13.45;;;17.10;99.90;;;;;;10254884;28;20046;-82
2022/08/04 04:30:54;;;;;;;16.75;11.85;;;17.10;99.90;;;;;;10337225;28;20030;-83
2022/08/04 04:36:28;;;;;;;23.95;15.13;;;17.20;99.90;;;;;;10321821;28;20058;-85
2022/08/04 04:41:35;;;;;;;35.05;32.05;;;17.40;99.90;;;;;;10308123;28;20130;-85
2022/08/04 04:46:44;;;;;;;19.65;13.65;;;17.60;99.90;;;;;;10315027;28;20037;-84
2022/08/04 04:51:59;;;;;;;27.83;21.20;;;17.70;99.90;;;;;;10323280;28;20089;-84
2022/08/04 04:57:14;;;;;;;25.92;21.08;;;17.70;99.90;;;;;;10349484;28;20046;-85
2022/08/04 05:02:52;;;;;;;26.30;22.85;;;17.80;99.90;;;;;;10329846;28;20536;-84
2022/08/04 05:08:17;;;;;;;24.85;13.80;;;18.00;99.90;;;;;;10343335;28;20026;-86
2022/08/04 05:13:35;;;;;;;20.08;12.63;;;18.20;99.90;;;;;;10321223;28;20027;-84
2022/08/04 05:18:39;;;;;;;19.80;11.95;;;18.40;99.90;;;;;;10319202;28;20033;-84
2022/08/04 05:23:46;;;;;;;21.83;13.38;;;18.60;99.90;;;;;;10346524;28;20034;-84
2022/08/04 05:28:56;;;;;;;22.92;14.30;;;18.60;99.90;;;;;;10319269;28;20031;-84
2022/08/04 05:34:06;;;;;;;25.17;14.32;;;18.90;99.90;;;;;;10330741;28;20374;-84
2022/08/04 05:39:13;;;;;;;247.80;65.78;;;19.20;99.90;;;;;;10336307;28;20188;-86
2022/08/04 05:44:18;;;;;;;9.48;9.15;;;19.30;99.90;;;;;;10329428;28;20035;-85
2022/08/04 05:49:20;;;;;;;;;;;19.50;99.90;;;;;;10345396;28;20100;-82
2022/08/04 05:54:21;;;;;;;472.08;429.60;;;19.70;99.90;;;;;;10338730;28;19919;-82
2022/08/04 05:59:24;;;;;;;31.52;20.45;;;19.90;99.90;;;;;;10332586;28;20027;-83
2022/08/04 06:04:37;;;;;;;27.70;18.63;;;20.10;99.90;;;;;;10343258;28;20041;-82
2022/08/04 06:09:38;;;;;;;1999.90;999.90;;;20.30;99.90;;;;;;10336333;28;20471;-83
2022/08/04 06:14:41;;;;;;;26.25;20.30;;;20.50;99.90;;;;;;10308189;28;20026;-82
2022/08/04 06:19:43;;;;;;;23.67;18.50;;;20.70;99.90;;;;;;10338463;28;20030;-84
2022/08/04 06:24:47;;;;;;;20.67;16.95;;;20.90;99.90;;;;;;10349210;28;20026;-82
2022/08/04 06:29:49;;;;;;;7.75;5.00;;;21.20;99.90;;;;;;10350944;28;20050;-82
2022/08/04 06:34:53;;;;;;;14.52;7.15;;;21.30;99.90;;;;;;10358056;28;20023;-82
2022/08/04 06:39:55;;;;;;;19.20;9.00;;;21.60;99.90;;;;;;10329136;28;20072;-82
2022/08/04 06:44:58;;;;;;;13.18;5.20;;;21.90;99.90;;;;;;10327216;28;20068;-82
2022/08/04 06:49:59;;;;;;;34.65;26.30;;;22.10;99.90;;;;;;10340499;28;20033;-83
2022/08/04 06:55:00;;;;;;;15.65;15.05;;;22.30;99.90;;;;;;10340725;28;20180;-82
2022/08/04 07:00:04;;;;;;;15.18;14.23;;;22.50;99.90;;;;;;10306370;28;20498;-82
2022/08/04 07:05:06;;;;;;;12.77;12.27;;;22.80;99.90;;;;;;10346711;28;20034;-82
2022/08/04 07:10:09;;;;;;;23.05;22.05;;;23.20;99.90;;;;;;10346659;28;20387;-84
2022/08/04 07:15:10;;;;;;;35.90;32.20;;;24.70;99.90;;;;;;10338866;28;20474;-83
2022/08/04 07:20:11;;;;;;;5.70;3.33;;;26.20;99.90;;;;;;10346797;28;20118;-82
2022/08/04 07:25:14;;;;;;;29.55;9.82;;;27.30;99.90;;;;;;10334885;28;20026;-83
2022/08/04 07:30:16;;;;;;;4.65;3.42;;;27.90;93.70;;;;;;10326939;28;20109;-84
2022/08/04 07:35:17;;;;;;;4.15;3.00;;;28.20;94.60;;;;;;10325643;28;20043;-82
2022/08/04 07:40:18;;;;;;;4.95;3.92;;;28.00;93.40;;;;;;10329892;28;20057;-83
2022/08/04 07:45:21;;;;;;;4.18;3.22;;;27.60;92.40;;;;;;10318526;28;20026;-86
2022/08/04 07:56:40;;;;;;;6.00;4.45;;;27.10;91.70;;;;;;10265106;28;20034;-85
2022/08/04 08:01:41;;;;;;;7.07;4.03;;;27.20;91.70;;;;;;10325421;28;20038;-83
2022/08/04 08:06:42;;;;;;;3.47;2.47;;;27.30;91.70;;;;;;10319959;28;20057;-84
2022/08/04 08:17:41;;;;;;;4.55;3.40;;;27.60;88.90;;;;;;10315479;28;20034;-83
2022/08/04 08:22:42;;;;;;;2.63;1.55;;;27.70;90.00;;;;;;10303570;28;20035;-83
2022/08/04 08:28:08;;;;;;;11.43;2.72;;;27.90;85.30;;;;;;10311762;28;20034;-84
2022/08/04 08:39:11;;;;;;;207.05;21.98;;;28.30;84.30;;;;;;10308423;28;20055;-83
2022/08/04 08:44:52;;;;;;;2.67;2.42;;;28.50;74.80;;;;;;10303101;28;20050;-84
2022/08/04 08:50:20;;;;;;;2.13;1.77;;;28.80;80.80;;;;;;10317780;28;20152;-83
2022/08/04 08:56:01;;;;;;;2.95;1.58;;;28.90;76.20;;;;;;10305736;28;20041;-86
2022/08/04 09:01:10;;;;;;;2.78;1.73;;;29.10;78.30;;;;;;10297847;28;20045;-84
2022/08/04 09:06:23;;;;;;;3.45;2.00;;;29.30;74.00;;;;;;10314265;28;20050;-83
2022/08/04 09:11:29;;;;;;;2.33;1.77;;;29.60;71.30;;;;;;10306193;28;20561;-84
2022/08/04 09:16:53;;;;;;;3.40;1.70;;;29.80;71.30;;;;;;10301217;28;20026;-85
2022/08/04 09:22:33;;;;;;;1.80;1.70;;;29.90;71.60;;;;;;10286619;28;20466;-85
2022/08/04 09:27:41;;;;;;;5.60;2.10;;;30.10;68.50;;;;;;10301566;28;20085;-84
2022/08/04 09:33:20;;;;;;;2.75;2.38;;;29.90;66.80;;;;;;10320292;28;20026;-85
2022/08/04 09:38:29;;;;;;;4.00;3.03;;;30.00;70.60;;;;;;10316081;28;20026;-83
2022/08/04 09:43:57;;;;;;;217.55;178.40;;;30.10;70.00;;;;;;10320291;28;20054;-83
2022/08/04 09:49:21;;;;;;;3.25;1.77;;;30.30;69.00;;;;;;10305508;28;20213;-85
2022/08/04 09:54:44;;;;;;;3.17;1.85;;;30.40;70.70;;;;;;10316648;28;20035;-85
2022/08/04 10:00:05;;;;;;;3.13;2.22;;;30.50;66.60;;;;;;10300137;28;20041;-85
2022/08/04 10:05:43;;;;;;;4.82;2.50;;;30.60;66.90;;;;;;10301714;28;20041;-84
2022/08/04 10:10:52;;;;;;;3.83;2.80;;;30.80;67.30;;;;;;10313076;28;20072;-85
2022/08/04 10:22:00;;;;;;;2.45;2.25;;;31.00;69.70;;;;;;10331357;28;20037;-84
2022/08/04 10:27:11;;;;;;;2.58;2.30;;;30.90;68.50;;;;;;10322777;28;20405;-83
2022/08/04 10:32:34;;;;;;;2.78;2.30;;;31.00;68.90;;;;;;10316566;28;20023;-84
2022/08/04 10:37:47;;;;;;;2.75;2.30;;;31.10;68.40;;;;;;10332455;28;20022;-84
2022/08/04 10:43:14;;;;;;;5.05;2.30;;;31.00;67.10;;;;;;10335865;28;20096;-85
2022/08/04 10:48:28;;;;;;;4.63;3.58;;;31.00;66.60;;;;;;10343365;28;20039;-85
2022/08/04 10:53:30;;;;;;;3.15;2.42;;;31.10;67.20;;;;;;10324906;28;20046;-84
2022/08/04 10:59:08;;;;;;;3.20;2.65;;;31.00;65.40;;;;;;10324760;28;20064;-83
2022/08/04 11:04:37;;;;;;;2.58;2.38;;;31.10;67.40;;;;;;10257168;28;20546;-83
2022/08/04 11:09:39;;;;;;;2.40;2.20;;;31.20;67.40;;;;;;10319613;28;20058;-85
2022/08/04 11:15:06;;;;;;;2.63;2.35;;;31.10;66.10;;;;;;10319368;28;20045;-83
2022/08/04 11:20:33;;;;;;;4.30;3.10;;;31.10;63.20;;;;;;10315295;28;20066;-83
2022/08/04 11:25:57;;;;;;;3.60;2.80;;;31.20;66.80;;;;;;10306588;28;20026;-83
2022/08/04 11:31:07;;;;;;;3.00;2.65;;;30.90;61.00;;;;;;10321054;28;20026;-83
2022/08/04 11:36:16;;;;;;;4.95;2.30;;;30.80;68.00;;;;;;10320383;28;20084;-84
2022/08/04 11:41:22;;;;;;;1.95;1.70;;;31.20;68.70;;;;;;10321178;28;20098;-84
2022/08/04 11:46:31;;;;;;;2.65;2.22;;;31.30;64.50;;;;;;10330812;28;20032;-83
2022/08/04 11:51:33;;;;;;;4.32;3.45;;;31.00;66.50;;;;;;10343168;28;20014;-83
2022/08/04 11:56:34;;;;;;;3.35;2.58;;;31.20;62.80;;;;;;10325681;28;20126;-83
2022/08/04 12:01:47;;;;;;;7.15;3.00;;;31.10;67.30;;;;;;10316224;28;20042;-83
2022/08/04 12:07:14;;;;;;;5.32;3.17;;;31.00;65.80;;;;;;10323673;28;20023;-82
2022/08/04 12:12:28;;;;;;;3.83;2.95;;;31.10;67.40;;;;;;10328378;28;20022;-83
2022/08/04 12:17:39;;;;;;;4.50;2.63;;;31.10;67.80;;;;;;10305287;28;20022;-82
2022/08/04 12:22:46;;;;;;;3.30;2.47;;;31.20;68.30;;;;;;10324916;28;20073;-83
2022/08/04 12:28:11;;;;;;;29.55;4.45;;;31.40;69.00;;;;;;10332615;28;20023;-82
2022/08/04 12:33:19;;;;;;;7.80;4.45;;;31.40;65.50;;;;;;10325419;28;20029;-83
2022/08/04 12:38:22;;;;;;;5.60;2.88;;;31.00;65.50;;;;;;10317601;28;20088;-81
2022/08/04 12:43:30;;;;;;;4.60;2.95;;;31.30;68.50;;;;;;10323121;28;20053;-82
2022/08/04 12:48:34;;;;;;;6.93;3.92;;;31.50;67.30;;;;;;10341882;28;20490;-81
2022/08/04 12:53:38;;;;;;;4.97;3.90;;;31.60;66.90;;;;;;10328756;28;20022;-82
2022/08/04 12:58:43;;;;;;;5.00;3.42;;;31.40;65.00;;;;;;10322134;28;20030;-83
2022/08/04 13:03:51;;;;;;;4.20;2.65;;;31.20;67.60;;;;;;10332619;28;20027;-81
2022/08/04 13:08:53;;;;;;;3.97;3.58;;;31.30;68.10;;;;;;10324845;28;20102;-83
2022/08/04 13:13:56;;;;;;;5.90;4.03;;;31.30;63.80;;;;;;10321060;28;20088;-82
2022/08/04 13:18:57;;;;;;;4.90;4.28;;;30.90;65.40;;;;;;10330073;28;20034;-81
2022/08/04 13:24:05;;;;;;;6.28;4.10;;;30.90;65.60;;;;;;10338916;28;20446;-82
2022/08/04 13:29:08;;;;;;;4.72;3.20;;;30.70;66.50;;;;;;10322474;28;20133;-82
2022/08/04 13:34:11;;;;;;;5.65;3.53;;;30.70;65.60;;;;;;10304974;28;20038;-81
2022/08/04 13:39:20;;;;;;;3.78;3.03;;;30.80;65.40;;;;;;10336333;28;20034;-83
2022/08/04 13:44:37;;;;;;;4.75;3.42;;;30.50;67.40;;;;;;10321797;28;20050;-81
2022/08/04 13:49:37;;;;;;;5.05;3.45;;;30.50;68.80;;;;;;10315994;28;20015;-82
2022/08/04 13:54:44;;;;;;;3.50;3.15;;;30.50;67.90;;;;;;10320503;28;20034;-84
2022/08/04 13:59:50;;;;;;;5.88;4.03;;;30.50;68.90;;;;;;10296888;28;20014;-82
2022/08/04 14:04:56;;;;;;;4.95;2.85;;;30.30;67.10;;;;;;10318770;28;20066;-81
2022/08/04 14:09:56;;;;;;;4.75;3.53;;;30.20;65.40;;;;;;10327497;28;20529;-84
2022/08/04 14:14:57;;;;;;;5.35;3.42;;;30.20;68.20;;;;;;10341727;28;20105;-82
2022/08/04 14:20:00;;;;;;;4.13;3.25;;;30.30;67.80;;;;;;10328113;28;20037;-81
2022/08/04 14:25:12;;;;;;;4.32;3.67;;;30.20;66.80;;;;;;10328237;28;20030;-83
2022/08/04 14:30:27;;;;;;;5.10;3.50;;;29.90;67.00;;;;;;10330482;28;20026;-83
2022/08/04 14:35:32;;;;;;;5.00;3.53;;;29.80;66.00;;;;;;10345612;28;20533;-83
2022/08/04 14:40:35;;;;;;;8.13;2.90;;;29.40;65.50;;;;;;10322492;28;20049;-82
2022/08/04 14:45:37;;;;;;;5.45;3.30;;;29.30;67.50;;;;;;10336909;28;20546;-82
2022/08/04 14:50:42;;;;;;;4.10;3.47;;;29.20;67.50;;;;;;10334476;28;20034;-83
2022/08/04 14:55:45;;;;;;;3.95;2.90;;;29.00;67.30;;;;;;10330012;28;20092;-83
2022/08/04 15:00:47;;;;;;;3.57;2.67;;;28.90;68.20;;;;;;10327279;28;20058;-82
2022/08/04 15:05:49;;;;;;;3.70;3.00;;;28.90;68.00;;;;;;10328173;28;20502;-82
2022/08/04 15:10:49;;;;;;;6.90;3.70;;;29.00;68.90;;;;;;10317901;28;20061;-82
2022/08/04 15:15:51;;;;;;;9.50;4.28;;;28.90;68.90;;;;;;10331929;28;20106;-83
2022/08/04 15:20:52;;;;;;;6.00;3.20;;;28.90;69.60;;;;;;10339769;28;20034;-82
2022/08/04 15:25:56;;;;;;;6.38;3.10;;;28.90;67.90;;;;;;10337022;28;20034;-84
2022/08/04 15:30:59;;;;;;;5.35;3.95;;;28.70;68.40;;;;;;10302761;28;20035;-83
2022/08/04 15:36:09;;;;;;;5.35;3.20;;;28.60;67.40;;;;;;10328710;28;20498;-83
2022/08/04 15:41:29;;;;;;;6.65;2.70;;;28.50;68.30;;;;;;10348230;28;20058;-83
2022/08/04 15:46:39;;;;;;;5.35;2.88;;;28.50;64.90;;;;;;10324805;28;20018;-85
2022/08/04 15:51:39;;;;;;;3.28;2.70;;;28.40;69.30;;;;;;10349990;28;20041;-84
2022/08/04 15:56:45;;;;;;;3.67;2.70;;;28.30;68.30;;;;;;10354287;28;20194;-82
2022/08/04 16:01:46;;;;;;;4.07;2.90;;;28.10;69.00;;;;;;10318394;28;20456;-83
2022/08/04 16:06:47;;;;;;;3.92;2.50;;;28.00;68.50;;;;;;10319327;28;20027;-83
2022/08/04 16:11:48;;;;;;;3.63;1.80;;;27.80;68.70;;;;;;10350292;28;20033;-83
2022/08/04 16:16:49;;;;;;;5.40;1.98;;;27.50;69.60;;;;;;10338206;28;20368;-83
2022/08/04 16:21:52;;;;;;;3.33;2.67;;;27.20;70.30;;;;;;10336679;28;20046;-84
2022/08/04 16:26:59;;;;;;;3.42;2.42;;;27.00;71.10;;;;;;10334811;28;20103;-84
2022/08/04 16:32:18;;;;;;;3.85;2.63;;;26.80;71.60;;;;;;10319170;28;20029;-84
2022/08/04 16:37:19;;;;;;;3.63;2.10;;;26.50;74.50;;;;;;10320532;28;20030;-84
2022/08/04 16:42:28;;;;;;;8.00;2.97;;;26.30;74.00;;;;;;10316945;28;20046;-84
2022/08/04 16:47:47;;;;;;;2.70;2.00;;;26.30;73.50;;;;;;10326542;28;20427;-82
2022/08/04 16:52:51;;;;;;;2.75;1.83;;;26.20;73.50;;;;;;10337654;28;20026;-82
2022/08/04 16:57:55;;;;;;;2.30;2.00;;;26.20;73.80;;;;;;10320459;28;20363;-83
2022/08/04 17:02:56;;;;;;;2.17;2.00;;;26.30;73.40;;;;;;10317639;28;20039;-83
2022/08/04 17:07:58;;;;;;;2.38;1.85;;;26.30;72.70;;;;;;10331561;28;20045;-83
2022/08/04 17:13:00;;;;;;;2.13;1.70;;;26.30;72.90;;;;;;10325937;28;20042;-83
2022/08/04 17:18:14;;;;;;;4.53;2.33;;;26.30;73.90;;;;;;10311472;28;20213;-84
2022/08/04 17:23:32;;;;;;;2.33;2.03;;;26.00;75.60;;;;;;10331640;28;20141;-82
2022/08/04 17:28:36;;;;;;;2.42;1.77;;;25.90;75.90;;;;;;10323522;28;20030;-83
2022/08/04 17:33:42;;;;;;;6.37;2.20;;;25.70;76.90;;;;;;10307812;28;20038;-83
2022/08/04 17:38:49;;;;;;;4.30;2.90;;;25.50;75.80;;;;;;10326881;28;20041;-85
2022/08/04 17:43:53;;;;;;;10.15;3.40;;;25.20;77.80;;;;;;10310821;28;20477;-84
2022/08/04 17:48:59;;;;;;;4.07;2.80;;;25.00;78.80;;;;;;10342224;28;20475;-84
2022/08/04 17:54:01;;;;;;;4.65;3.10;;;24.60;79.20;;;;;;10338046;28;20040;-83
2022/08/04 17:59:11;;;;;;;6.13;2.15;;;24.40;79.80;;;;;;10332509;28;20022;-82
2022/08/04 18:04:37;;;;;;;4.18;2.47;;;24.10;80.40;;;;;;10337997;28;20062;-82
2022/08/04 18:09:57;;;;;;;7.47;3.10;;;23.90;82.10;;;;;;10329944;28;20486;-83
2022/08/04 18:15:00;;;;;;;4.68;3.25;;;23.50;82.30;;;;;;10328935;28;20068;-84
2022/08/04 18:20:07;;;;;;;6.00;2.55;;;23.30;82.90;;;;;;10328987;28;20081;-82
2022/08/04 18:25:09;;;;;;;3.95;2.30;;;23.00;83.90;;;;;;10334929;28;20038;-82
2022/08/04 18:30:10;;;;;;;4.07;3.00;;;22.70;84.50;;;;;;10313364;28;20530;-81
2022/08/04 18:35:11;;;;;;;3.13;2.72;;;22.60;84.80;;;;;;10338717;28;20042;-81
2022/08/04 18:40:12;;;;;;;5.15;2.90;;;22.40;84.90;;;;;;10340278;28;20047;-82
2022/08/04 18:45:13;;;;;;;2.33;1.92;;;22.30;84.90;;;;;;10330422;28;20030;-82
2022/08/04 18:50:13;;;;;;;7.50;3.28;;;22.20;85.40;;;;;;10338802;28;20113;-82
2022/08/04 18:55:15;;;;;;;2.85;2.30;;;22.20;85.60;;;;;;10335715;28;20034;-81
2022/08/04 19:00:16;;;;;;;4.65;2.20;;;22.10;86.00;;;;;;10332347;28;20391;-81
2022/08/04 19:05:16;;;;;;;8.48;4.80;;;22.00;85.90;;;;;;10320935;28;20038;-81
2022/08/04 19:10:17;;;;;;;69.45;65.13;;;21.90;86.40;;;;;;10348344;28;20034;-82
2022/08/04 19:15:18;;;;;;;3.90;2.80;;;21.90;85.60;;;;;;10319314;28;20033;-81
2022/08/04 19:20:19;;;;;;;6.47;3.78;;;21.80;87.40;;;;;;10336646;28;20371;-83
2022/08/04 19:25:19;;;;;;;12.35;5.38;;;21.60;87.30;;;;;;10328509;28;20457;-82
2022/08/04 19:30:20;;;;;;;6.45;3.65;;;21.50;88.30;;;;;;10314410;28;20042;-82
2022/08/04 19:35:21;;;;;;;9.85;4.03;;;21.30;88.10;;;;;;10340067;28;20034;-82
2022/08/04 19:40:23;;;;;;;7.68;3.72;;;21.30;89.00;;;;;;10325083;28;20400;-82
2022/08/04 19:45:23;;;;;;;9.95;4.35;;;21.20;89.10;;;;;;10334631;28;20035;-81
2022/08/04 19:50:24;;;;;;;4.55;3.67;;;21.20;89.50;;;;;;10342322;28;20030;-81
2022/08/04 19:55:25;;;;;;;6.75;3.58;;;21.10;90.10;;;;;;10324043;28;20021;-82
2022/08/04 20:00:26;;;;;;;8.52;5.57;;;21.10;90.00;;;;;;10312022;28;20046;-82
2022/08/04 20:05:26;;;;;;;8.40;5.07;;;21.10;90.50;;;;;;10332206;28;20475;-82
2022/08/04 20:10:27;;;;;;;7.57;5.22;;;21.00;90.20;;;;;;10340716;28;20033;-82
2022/08/04 20:15:27;;;;;;;8.43;5.63;;;21.00;90.40;;;;;;10317490;28;20386;-83
2022/08/04 20:20:28;;;;;;;10.18;5.88;;;20.90;90.40;;;;;;10321766;28;20034;-81
2022/08/04 20:25:28;;;;;;;7.60;5.60;;;20.80;90.70;;;;;;10325392;28;20060;-81
2022/08/04 20:30:29;;;;;;;10.93;5.43;;;20.60;90.80;;;;;;10314435;28;20034;-81
2022/08/04 20:35:31;;;;;;;7.13;5.32;;;20.60;90.80;;;;;;10321891;28;20081;-81
2022/08/04 20:40:31;;;;;;;9.57;5.97;;;20.50;91.10;;;;;;10318783;28;20398;-81
2022/08/04 20:45:32;;;;;;;9.55;5.43;;;20.40;91.20;;;;;;10328720;28;20015;-81
2022/08/04 20:50:33;;;;;;;10.57;5.78;;;20.40;91.40;;;;;;10332432;28;20070;-81
2022/08/04 20:55:33;;;;;;;9.13;5.38;;;20.30;91.60;;;;;;10324817;28;20037;-81
2022/08/04 21:00:34;;;;;;;7.70;5.43;;;20.30;91.50;;;;;;10318069;28;20049;-81
2022/08/04 21:05:35;;;;;;;7.72;5.25;;;20.30;91.80;;;;;;10301109;28;20026;-80
2022/08/04 21:10:36;;;;;;;6.88;5.70;;;20.20;91.90;;;;;;10320920;28;20030;-81
2022/08/04 21:15:36;;;;;;;8.75;5.78;;;20.20;91.80;;;;;;10314768;28;20034;-80
2022/08/04 21:20:37;;;;;;;6.03;5.13;;;20.00;92.30;;;;;;10321526;28;20117;-80
2022/08/04 21:25:38;;;;;;;7.97;5.28;;;20.00;92.40;;;;;;10402451;23;20057;-80
2022/08/04 21:30:39;;;;;;;8.50;5.13;;;19.90;92.70;;;;;;10418875;28;20103;-80
2022/08/04 21:35:39;;;;;;;7.05;5.22;;;19.80;92.90;;;;;;10407111;28;20541;-81
2022/08/04 21:40:40;;;;;;;8.05;3.83;;;19.60;93.20;;;;;;10406929;28;20076;-80
2022/08/04 21:45:40;;;;;;;381.50;181.20;;;19.40;93.20;;;;;;10417051;28;20117;-79
2022/08/04 21:50:41;;;;;;;318.83;98.47;;;19.20;94.20;;;;;;10403532;28;20017;-79
2022/08/04 21:55:41;;;;;;;94.82;25.00;;;19.10;94.90;;;;;;10414003;28;20457;-80
2022/08/04 22:00:42;;;;;;;339.42;69.45;;;18.90;95.00;;;;;;10415469;28;20388;-80
2022/08/04 22:05:42;;;;;;;11.57;5.32;;;18.70;95.90;;;;;;10415033;28;20041;-80
2022/08/04 22:10:43;;;;;;;100.38;42.90;;;18.70;96.70;;;;;;10406004;28;20057;-79
2022/08/04 22:15:43;;;;;;;1999.90;999.90;;;18.60;96.90;;;;;;10409810;28;20105;-80
2022/08/04 22:20:44;;;;;;;1999.90;999.90;;;18.50;98.00;;;;;;10404954;28;20037;-79
2022/08/04 22:25:45;;;;;;;56.78;19.80;;;18.30;98.60;;;;;;10425915;28;20068;-80
2022/08/04 22:30:47;;;;;;;7.00;4.43;;;18.20;98.50;;;;;;10424544;28;20017;-80
2022/08/04 22:35:47;;;;;;;9.70;6.10;;;18.10;99.90;;;;;;10435624;28;20362;-79
2022/08/04 22:40:48;;;;;;;6.57;5.20;;;18.10;99.90;;;;;;10425640;28;20036;-79
2022/08/04 22:45:48;;;;;;;9.00;5.63;;;18.10;99.90;;;;;;10422541;28;20051;-79
2022/08/04 22:50:49;;;;;;;8.57;5.53;;;18.10;99.90;;;;;;10413956;28;20021;-80
2022/08/04 22:55:50;;;;;;;9.50;5.32;;;18.00;99.90;;;;;;10410144;28;20032;-80
2022/08/04 23:00:50;;;;;;;7.70;5.25;;;18.00;99.90;;;;;;10414497;28;20037;-81
2022/08/04 23:05:51;;;;;;;7.43;5.68;;;17.90;99.90;;;;;;10433612;23;20227;-80
2022/08/04 23:10:51;;;;;;;7.72;5.57;;;17.80;99.90;;;;;;10433397;28;20036;-79
2022/08/04 23:15:52;;;;;;;7.82;5.32;;;17.70;99.90;;;;;;10423205;28;20369;-80
2022/08/04 23:20:52;;;;;;;8.20;5.55;;;17.60;99.90;;;;;;10435355;28;20084;-80
2022/08/04 23:25:53;;;;;;;7.90;5.50;;;17.70;99.90;;;;;;10428601;28;20060;-81
2022/08/04 23:30:55;;;;;;;7.57;5.35;;;17.80;99.90;;;;;;10419089;28;20028;-79
2022/08/04 23:35:55;;;;;;;12.75;7.88;;;17.80;99.90;;;;;;10422210;28;20029;-80
2022/08/04 23:41:07;;;;;;;11.02;7.43;;;17.80;99.90;;;;;;10436613;28;20040;-80
2022/08/04 23:46:07;;;;;;;8.43;7.05;;;17.70;99.90;;;;;;10424220;28;20811;-80
2022/08/04 23:51:11;;;;;;;10.15;6.88;;;17.60;99.90;;;;;;10423581;28;20166;-80
2022/08/04 23:56:13;;;;;;;7.50;5.78;;;17.60;99.90;;;;;;10414438;28;20025;-80
